sensor_id;sensor_type;location;lat;lon;timestamp;pressure;altitude;pressure_sealevel;temperature;humidity
43707;BME280;61348;53.392;-6.248;2023-02-14T00:02:17;101908.59;;;6.48;80.69
43707;BME280;61348;53.392;-6.248;2023-02-14T00:04:44;101904.19;;;6.47;81.04
43707;BME280;61348;53.392;-6.248;2023-02-14T00:07:12;101889.09;;;6.45;81.02
43707;BME280;61348;53.392;-6.248;2023-02-14T00:09:39;101894.91;;;6.43;81.21
43707;BME280;61348;53.392;-6.248;2023-02-14T00:12:06;101875.91;;;6.42;81.37
43707;BME280;61348;53.392;-6.248;2023-02-14T00:14:33;101865.22;;;6.40;81.62
43707;BME280;61348;53.392;-6.248;2023-02-14T00:17:18;101884.47;;;6.40;81.83
43707;BME280;61348;53.392;-6.248;2023-02-14T00:19:45;101889.97;;;6.40;81.81
43707;BME280;61348;53.392;-6.248;2023-02-14T00:22:13;101890.50;;;6.42;81.63
43707;BME280;61348;53.392;-6.248;2023-02-14T00:24:39;101880.59;;;6.41;81.75
43707;BME280;61348;53.392;-6.248;2023-02-14T00:27:06;101866.84;;;6.41;81.90
43707;BME280;61348;53.392;-6.248;2023-02-14T00:29:33;101864.63;;;6.43;81.65
43707;BME280;61348;53.392;-6.248;2023-02-14T00:32:00;101872.06;;;6.43;81.83
43707;BME280;61348;53.392;-6.248;2023-02-14T00:34:27;101865.72;;;6.42;81.55
43707;BME280;61348;53.392;-6.248;2023-02-14T00:36:54;101869.00;;;6.44;81.67
43707;BME280;61348;53.392;-6.248;2023-02-14T00:39:21;101869.00;;;6.44;81.66
43707;BME280;61348;53.392;-6.248;2023-02-14T00:41:48;101869.25;;;6.48;81.71
43707;BME280;61348;53.392;-6.248;2023-02-14T00:44:14;101862.34;;;6.50;81.91
43707;BME280;61348;53.392;-6.248;2023-02-14T00:46:41;101865.63;;;6.52;81.74
43707;BME280;61348;53.392;-6.248;2023-02-14T00:49:08;101860.94;;;6.53;81.54
43707;BME280;61348;53.392;-6.248;2023-02-14T00:51:35;101849.94;;;6.53;81.86
43707;BME280;61348;53.392;-6.248;2023-02-14T00:54:02;101844.13;;;6.54;81.82
43707;BME280;61348;53.392;-6.248;2023-02-14T00:56:29;101853.22;;;6.55;81.84
43707;BME280;61348;53.392;-6.248;2023-02-14T00:58:56;101863.41;;;6.54;81.85
43707;BME280;61348;53.392;-6.248;2023-02-14T01:01:23;101867.28;;;6.53;82.03
43707;BME280;61348;53.392;-6.248;2023-02-14T01:03:50;101872.78;;;6.53;82.01
43707;BME280;61348;53.392;-6.248;2023-02-14T01:06:19;101866.44;;;6.53;82.08
43707;BME280;61348;53.392;-6.248;2023-02-14T01:08:47;101859.03;;;6.53;82.17
43707;BME280;61348;53.392;-6.248;2023-02-14T01:11:19;101866.44;;;6.53;82.47
43707;BME280;61348;53.392;-6.248;2023-02-14T01:13:48;101863.19;;;6.51;82.39
43707;BME280;61348;53.392;-6.248;2023-02-14T01:16:18;101853.59;;;6.48;82.54
43707;BME280;61348;53.392;-6.248;2023-02-14T01:18:46;101848.88;;;6.49;83.16
43707;BME280;61348;53.392;-6.248;2023-02-14T01:21:21;101858.47;;;6.51;83.07
43707;BME280;61348;53.392;-6.248;2023-02-14T01:23:50;101835.09;;;6.54;82.98
43707;BME280;61348;53.392;-6.248;2023-02-14T01:26:18;101838.38;;;6.56;83.19
43707;BME280;61348;53.392;-6.248;2023-02-14T01:28:45;101847.13;;;6.58;83.36
43707;BME280;61348;53.392;-6.248;2023-02-14T01:33:44;101835.81;;;6.59;83.47
43707;BME280;61348;53.392;-6.248;2023-02-14T01:36:38;101832.50;;;6.62;83.89
43707;BME280;61348;53.392;-6.248;2023-02-14T01:39:09;101830.28;;;6.64;84.05
43707;BME280;61348;53.392;-6.248;2023-02-14T01:41:37;101819.81;;;6.66;84.13
43707;BME280;61348;53.392;-6.248;2023-02-14T01:44:50;101815.34;;;6.70;84.32
43707;BME280;61348;53.392;-6.248;2023-02-14T01:46:54;101822.75;;;6.75;84.44
43707;BME280;61348;53.392;-6.248;2023-02-14T01:49:23;101821.34;;;6.78;84.46
43707;BME280;61348;53.392;-6.248;2023-02-14T01:54:43;101821.28;;;6.83;84.58
43707;BME280;61348;53.392;-6.248;2023-02-14T01:57:15;101817.94;;;6.86;84.59
43707;BME280;61348;53.392;-6.248;2023-02-14T01:59:49;101809.69;;;6.86;84.87
43707;BME280;61348;53.392;-6.248;2023-02-14T02:02:17;101804.69;;;6.88;85.03
43707;BME280;61348;53.392;-6.248;2023-02-14T02:04:52;101801.94;;;6.88;85.05
43707;BME280;61348;53.392;-6.248;2023-02-14T02:07:23;101804.38;;;6.89;85.06
43707;BME280;61348;53.392;-6.248;2023-02-14T02:09:57;101802.16;;;6.91;85.29
43707;BME280;61348;53.392;-6.248;2023-02-14T02:12:26;101815.91;;;6.91;85.23
43707;BME280;61348;53.392;-6.248;2023-02-14T02:14:57;101814.28;;;6.90;85.62
43707;BME280;61348;53.392;-6.248;2023-02-14T02:17:50;101804.69;;;6.88;85.84
43707;BME280;61348;53.392;-6.248;2023-02-14T02:23:35;101803.63;;;6.84;86.17
43707;BME280;61348;53.392;-6.248;2023-02-14T02:29:20;101798.19;;;6.79;86.52
43707;BME280;61348;53.392;-6.248;2023-02-14T02:46:48;101786.59;;;6.82;87.61
43707;BME280;61348;53.392;-6.248;2023-02-14T02:52:41;101776.66;;;6.86;87.73
43707;BME280;61348;53.392;-6.248;2023-02-14T03:02:15;101768.91;;;6.88;87.99
43707;BME280;61348;53.392;-6.248;2023-02-14T03:04:48;101770.31;;;6.85;88.14
43707;BME280;61348;53.392;-6.248;2023-02-14T03:20:53;101771.94;;;6.86;88.83
43707;BME280;61348;53.392;-6.248;2023-02-14T03:23:26;101765.63;;;6.86;88.80
43707;BME280;61348;53.392;-6.248;2023-02-14T03:39:07;101735.81;;;6.93;89.28
43707;BME280;61348;53.392;-6.248;2023-02-14T03:41:37;101736.63;;;6.93;89.35
43707;BME280;61348;53.392;-6.248;2023-02-14T03:44:08;101726.41;;;6.94;89.78
43707;BME280;61348;53.392;-6.248;2023-02-14T03:46:48;101723.66;;;6.94;89.86
43707;BME280;61348;53.392;-6.248;2023-02-14T03:49:20;101726.13;;;6.95;90.17
43707;BME280;61348;53.392;-6.248;2023-02-14T03:51:51;101715.13;;;6.95;90.67
43707;BME280;61348;53.392;-6.248;2023-02-14T03:54:20;101721.44;;;6.96;90.50
43707;BME280;61348;53.392;-6.248;2023-02-14T03:56:59;101725.31;;;6.95;90.65
43707;BME280;61348;53.392;-6.248;2023-02-14T03:59:30;101718.97;;;6.94;91.06
43707;BME280;61348;53.392;-6.248;2023-02-14T04:02:07;101715.13;;;6.95;90.94
43707;BME280;61348;53.392;-6.248;2023-02-14T04:04:39;101727.78;;;6.96;91.55
43707;BME280;61348;53.392;-6.248;2023-02-14T04:07:14;101723.06;;;6.97;91.84
43707;BME280;61348;53.392;-6.248;2023-02-14T04:09:41;101729.41;;;6.97;91.91
43707;BME280;61348;53.392;-6.248;2023-02-14T04:12:08;101729.13;;;6.99;92.14
43707;BME280;61348;53.392;-6.248;2023-02-14T04:14:35;101735.34;;;7.04;92.47
43707;BME280;61348;53.392;-6.248;2023-02-14T04:17:02;101731.19;;;7.07;92.47
43707;BME280;61348;53.392;-6.248;2023-02-14T04:19:48;101731.41;;;7.10;92.64
43707;BME280;61348;53.392;-6.248;2023-02-14T04:22:15;101734.38;;;7.14;92.74
43707;BME280;61348;53.392;-6.248;2023-02-14T04:24:42;101733.78;;;7.17;92.67
43707;BME280;61348;53.392;-6.248;2023-02-14T04:27:09;101728.81;;;7.19;92.86
43707;BME280;61348;53.392;-6.248;2023-02-14T04:29:46;101723.81;;;7.21;92.83
43707;BME280;61348;53.392;-6.248;2023-02-14T04:32:20;101727.06;;;7.23;93.00
43707;BME280;61348;53.392;-6.248;2023-02-14T04:34:49;101722.69;;;7.22;92.88
43707;BME280;61348;53.392;-6.248;2023-02-14T04:37:17;101719.94;;;7.22;93.33
43707;BME280;61348;53.392;-6.248;2023-02-14T04:39:45;101728.72;;;7.24;93.45
43707;BME280;61348;53.392;-6.248;2023-02-14T04:42:12;101728.13;;;7.27;93.40
43707;BME280;61348;53.392;-6.248;2023-02-14T04:44:39;101727.53;;;7.30;93.48
43707;BME280;61348;53.392;-6.248;2023-02-14T04:47:06;101726.13;;;7.32;93.87
43707;BME280;61348;53.392;-6.248;2023-02-14T04:49:34;101723.06;;;7.34;93.76
43707;BME280;61348;53.392;-6.248;2023-02-14T04:52:01;101737.88;;;7.38;93.77
43707;BME280;61348;53.392;-6.248;2023-02-14T04:54:29;101716.34;;;7.40;93.71
43707;BME280;61348;53.392;-6.248;2023-02-14T04:56:55;101724.00;;;7.43;93.88
43707;BME280;61348;53.392;-6.248;2023-02-14T04:59:22;101711.84;;;7.44;93.86
43707;BME280;61348;53.392;-6.248;2023-02-14T05:01:51;101706.34;;;7.44;94.00
43707;BME280;61348;53.392;-6.248;2023-02-14T05:04:18;101719.03;;;7.45;94.18
43707;BME280;61348;53.392;-6.248;2023-02-14T05:06:45;101721.25;;;7.43;94.22
43707;BME280;61348;53.392;-6.248;2023-02-14T05:09:12;101708.59;;;7.42;94.40
43707;BME280;61348;53.392;-6.248;2023-02-14T05:11:39;101712.50;;;7.41;94.38
43707;BME280;61348;53.392;-6.248;2023-02-14T05:14:06;101716.34;;;7.40;94.42
43707;BME280;61348;53.392;-6.248;2023-02-14T05:16:32;101698.78;;;7.36;94.47
43707;BME280;61348;53.392;-6.248;2023-02-14T05:18:59;101712.84;;;7.34;94.64
43707;BME280;61348;53.392;-6.248;2023-02-14T05:21:26;101711.53;;;7.32;95.04
43707;BME280;61348;53.392;-6.248;2023-02-14T05:23:54;101715.91;;;7.33;94.84
43707;BME280;61348;53.392;-6.248;2023-02-14T05:26:21;101703.25;;;7.32;94.90
43707;BME280;61348;53.392;-6.248;2023-02-14T05:28:47;101707.13;;;7.31;95.09
43707;BME280;61348;53.392;-6.248;2023-02-14T05:31:14;101707.13;;;7.31;95.24
43707;BME280;61348;53.392;-6.248;2023-02-14T05:33:41;101714.28;;;7.32;95.27
43707;BME280;61348;53.392;-6.248;2023-02-14T05:36:08;101696.63;;;7.33;95.37
43707;BME280;61348;53.392;-6.248;2023-02-14T05:38:35;101699.09;;;7.34;95.33
43707;BME280;61348;53.392;-6.248;2023-02-14T05:41:02;101703.16;;;7.37;95.39
43707;BME280;61348;53.392;-6.248;2023-02-14T05:43:29;101699.50;;;7.42;95.43
43707;BME280;61348;53.392;-6.248;2023-02-14T05:46:10;101693.72;;;7.43;95.55
43707;BME280;61348;53.392;-6.248;2023-02-14T05:48:40;101683.50;;;7.44;95.45
43707;BME280;61348;53.392;-6.248;2023-02-14T05:51:09;101700.84;;;7.44;95.82
43707;BME280;61348;53.392;-6.248;2023-02-14T05:53:37;101695.31;;;7.44;95.49
43707;BME280;61348;53.392;-6.248;2023-02-14T05:56:04;101689.81;;;7.44;95.71
43707;BME280;61348;53.392;-6.248;2023-02-14T05:58:31;101697.81;;;7.46;95.72
43707;BME280;61348;53.392;-6.248;2023-02-14T06:00:59;101695.56;;;7.48;95.76
43707;BME280;61348;53.392;-6.248;2023-02-14T06:03:29;101693.31;;;7.50;96.08
43707;BME280;61348;53.392;-6.248;2023-02-14T06:05:55;101689.13;;;7.52;96.13
43707;BME280;61348;53.392;-6.248;2023-02-14T06:08:22;101680.88;;;7.52;96.47
43707;BME280;61348;53.392;-6.248;2023-02-14T06:10:49;101681.91;;;7.56;96.41
43707;BME280;61348;53.392;-6.248;2023-02-14T06:13:16;101676.91;;;7.58;96.16
43707;BME280;61348;53.392;-6.248;2023-02-14T06:15:43;101678.25;;;7.61;96.10
43707;BME280;61348;53.392;-6.248;2023-02-14T06:18:09;101681.50;;;7.63;96.08
43707;BME280;61348;53.392;-6.248;2023-02-14T06:20:36;101678.47;;;7.64;96.25
43707;BME280;61348;53.392;-6.248;2023-02-14T06:23:03;101686.13;;;7.67;96.26
43707;BME280;61348;53.392;-6.248;2023-02-14T06:25:30;101680.31;;;7.69;96.29
43707;BME280;61348;53.392;-6.248;2023-02-14T06:27:59;101686.63;;;7.69;96.55
43707;BME280;61348;53.392;-6.248;2023-02-14T06:30:26;101684.16;;;7.68;96.26
43707;BME280;61348;53.392;-6.248;2023-02-14T06:32:53;101694.41;;;7.67;96.51
43707;BME280;61348;53.392;-6.248;2023-02-14T06:35:20;101681.72;;;7.66;96.41
43707;BME280;61348;53.392;-6.248;2023-02-14T06:37:47;101678.97;;;7.66;96.69
43707;BME280;61348;53.392;-6.248;2023-02-14T06:40:14;101681.72;;;7.66;96.77
43707;BME280;61348;53.392;-6.248;2023-02-14T06:42:41;101674.28;;;7.67;96.92
43707;BME280;61348;53.392;-6.248;2023-02-14T06:45:08;101672.34;;;7.67;97.02
43707;BME280;61348;53.392;-6.248;2023-02-14T06:47:35;101667.63;;;7.68;96.93
43707;BME280;61348;53.392;-6.248;2023-02-14T06:50:03;101677.25;;;7.70;96.95
43707;BME280;61348;53.392;-6.248;2023-02-14T06:52:32;101683.88;;;7.69;97.28
43707;BME280;61348;53.392;-6.248;2023-02-14T06:54:59;101689.91;;;7.71;97.30
43707;BME280;61348;53.392;-6.248;2023-02-14T06:57:27;101694.81;;;7.74;97.32
43707;BME280;61348;53.392;-6.248;2023-02-14T06:59:54;101685.44;;;7.75;97.54
43707;BME280;61348;53.392;-6.248;2023-02-14T07:02:20;101682.59;;;7.80;97.50
43707;BME280;61348;53.392;-6.248;2023-02-14T07:04:50;101675.66;;;7.83;97.50
43707;BME280;61348;53.392;-6.248;2023-02-14T07:07:17;101675.31;;;7.84;97.57
43707;BME280;61348;53.392;-6.248;2023-02-14T07:09:45;101676.97;;;7.85;97.64
43707;BME280;61348;53.392;-6.248;2023-02-14T07:12:12;101679.13;;;7.88;97.72
43707;BME280;61348;53.392;-6.248;2023-02-14T07:14:38;101682.38;;;7.90;97.75
43707;BME280;61348;53.392;-6.248;2023-02-14T07:17:05;101690.34;;;7.92;97.88
43707;BME280;61348;53.392;-6.248;2023-02-14T07:19:32;101682.59;;;7.94;97.91
43707;BME280;61348;53.392;-6.248;2023-02-14T07:21:59;101685.53;;;7.97;98.13
43707;BME280;61348;53.392;-6.248;2023-02-14T07:24:26;101688.81;;;7.99;98.11
43707;BME280;61348;53.392;-6.248;2023-02-14T07:26:53;101689.34;;;8.02;98.15
43707;BME280;61348;53.392;-6.248;2023-02-14T07:29:19;101690.97;;;8.03;98.24
43707;BME280;61348;53.392;-6.248;2023-02-14T07:31:46;101694.25;;;8.05;98.24
43707;BME280;61348;53.392;-6.248;2023-02-14T07:34:13;101696.69;;;8.06;98.42
43707;BME280;61348;53.392;-6.248;2023-02-14T07:36:40;101699.97;;;8.08;98.47
43707;BME280;61348;53.392;-6.248;2023-02-14T07:39:07;101697.72;;;8.10;98.53
43707;BME280;61348;53.392;-6.248;2023-02-14T07:41:33;101697.09;;;8.13;98.47
43707;BME280;61348;53.392;-6.248;2023-02-14T07:44:00;101703.94;;;8.16;98.62
43707;BME280;61348;53.392;-6.248;2023-02-14T07:46:27;101704.16;;;8.19;98.70
43707;BME280;61348;53.392;-6.248;2023-02-14T07:48:54;101707.13;;;8.23;98.81
43707;BME280;61348;53.392;-6.248;2023-02-14T07:51:21;101699.03;;;8.26;98.79
43707;BME280;61348;53.392;-6.248;2023-02-14T07:53:47;101702.38;;;8.28;98.90
43707;BME280;61348;53.392;-6.248;2023-02-14T07:56:14;101690.41;;;8.33;99.24
43707;BME280;61348;53.392;-6.248;2023-02-14T07:58:41;101703.59;;;8.36;99.17
43707;BME280;61348;53.392;-6.248;2023-02-14T08:01:08;101705.75;;;8.39;99.24
43707;BME280;61348;53.392;-6.248;2023-02-14T08:03:35;101707.34;;;8.40;99.19
43707;BME280;61348;53.392;-6.248;2023-02-14T08:06:02;101717.78;;;8.43;99.27
43707;BME280;61348;53.392;-6.248;2023-02-14T08:08:29;101708.91;;;8.46;99.39
43707;BME280;61348;53.392;-6.248;2023-02-14T08:10:57;101709.41;;;8.48;99.43
43707;BME280;61348;53.392;-6.248;2023-02-14T08:13:24;101717.38;;;8.49;99.49
43707;BME280;61348;53.392;-6.248;2023-02-14T08:15:51;101715.13;;;8.51;99.46
43707;BME280;61348;53.392;-6.248;2023-02-14T08:18:37;101723.63;;;8.55;99.75
43707;BME280;61348;53.392;-6.248;2023-02-14T08:21:06;101716.13;;;8.55;99.79
43707;BME280;61348;53.392;-6.248;2023-02-14T08:23:33;101716.97;;;8.56;99.79
43707;BME280;61348;53.392;-6.248;2023-02-14T08:26:00;101720.22;;;8.58;99.95
43707;BME280;61348;53.392;-6.248;2023-02-14T08:28:27;101706.94;;;8.60;100.00
43707;BME280;61348;53.392;-6.248;2023-02-14T08:30:54;101711.03;;;8.63;100.00
43707;BME280;61348;53.392;-6.248;2023-02-14T08:33:21;101698.56;;;8.65;100.00
43707;BME280;61348;53.392;-6.248;2023-02-14T08:35:50;101704.59;;;8.67;100.00
43707;BME280;61348;53.392;-6.248;2023-02-14T08:38:17;101698.72;;;8.69;100.00
43707;BME280;61348;53.392;-6.248;2023-02-14T08:40:44;101694.84;;;8.70;100.00
43707;BME280;61348;53.392;-6.248;2023-02-14T08:43:11;101698.63;;;8.74;100.00
43707;BME280;61348;53.392;-6.248;2023-02-14T08:45:38;101687.50;;;8.79;100.00
43707;BME280;61348;53.392;-6.248;2023-02-14T08:48:08;101700.34;;;8.83;100.00
43707;BME280;61348;53.392;-6.248;2023-02-14T08:50:36;101700.56;;;8.87;100.00
43707;BME280;61348;53.392;-6.248;2023-02-14T08:53:06;101695.22;;;8.90;100.00
43707;BME280;61348;53.392;-6.248;2023-02-14T08:55:33;101703.72;;;8.94;100.00
43707;BME280;61348;53.392;-6.248;2023-02-14T08:58:00;101706.69;;;8.97;100.00
43707;BME280;61348;53.392;-6.248;2023-02-14T09:00:29;101702.97;;;9.02;100.00
43707;BME280;61348;53.392;-6.248;2023-02-14T09:02:56;101698.78;;;9.04;100.00
43707;BME280;61348;53.392;-6.248;2023-02-14T09:05:24;101703.69;;;9.07;100.00
43707;BME280;61348;53.392;-6.248;2023-02-14T09:07:52;101710.81;;;9.08;100.00
43707;BME280;61348;53.392;-6.248;2023-02-14T09:10:23;101704.16;;;9.09;100.00
43707;BME280;61348;53.392;-6.248;2023-02-14T09:12:50;101694.78;;;9.10;100.00
43707;BME280;61348;53.392;-6.248;2023-02-14T09:15:17;101706.81;;;9.14;100.00
43707;BME280;61348;53.392;-6.248;2023-02-14T09:17:44;101710.91;;;9.17;100.00
43707;BME280;61348;53.392;-6.248;2023-02-14T09:20:13;101700.66;;;9.17;100.00
43707;BME280;61348;53.392;-6.248;2023-02-14T09:22:40;101702.31;;;9.18;100.00
43707;BME280;61348;53.392;-6.248;2023-02-14T09:25:08;101702.81;;;9.21;100.00
43707;BME280;61348;53.392;-6.248;2023-02-14T09:27:35;101697.78;;;9.23;100.00
43707;BME280;61348;53.392;-6.248;2023-02-14T09:30:02;101701.03;;;9.25;100.00
43707;BME280;61348;53.392;-6.248;2023-02-14T09:32:31;101702.34;;;9.27;100.00
43707;BME280;61348;53.392;-6.248;2023-02-14T09:34:58;101702.56;;;9.31;100.00
43707;BME280;61348;53.392;-6.248;2023-02-14T09:37:26;101707.13;;;9.35;100.00
43707;BME280;61348;53.392;-6.248;2023-02-14T09:39:53;101694.63;;;9.38;100.00
43707;BME280;61348;53.392;-6.248;2023-02-14T09:42:37;101694.84;;;9.41;100.00
43707;BME280;61348;53.392;-6.248;2023-02-14T09:45:14;101703.31;;;9.45;100.00
43707;BME280;61348;53.392;-6.248;2023-02-14T09:47:56;101703.81;;;9.47;100.00
43707;BME280;61348;53.392;-6.248;2023-02-14T09:53:17;101702.03;;;9.51;100.00
43707;BME280;61348;53.392;-6.248;2023-02-14T09:55:53;101691.50;;;9.53;100.00
43707;BME280;61348;53.392;-6.248;2023-02-14T09:58:27;101696.38;;;9.56;100.00
43707;BME280;61348;53.392;-6.248;2023-02-14T10:07:15;101697.97;;;9.70;100.00
43707;BME280;61348;53.392;-6.248;2023-02-14T10:12:45;101701.97;;;9.87;100.00
43707;BME280;61348;53.392;-6.248;2023-02-14T10:15:20;101701.50;;;9.93;100.00
43707;BME280;61348;53.392;-6.248;2023-02-14T10:17:50;101711.09;;;9.96;100.00
43707;BME280;61348;53.392;-6.248;2023-02-14T10:20:42;101713.44;;;10.02;100.00
43707;BME280;61348;53.392;-6.248;2023-02-14T10:23:31;101695.56;;;10.08;100.00
43707;BME280;61348;53.392;-6.248;2023-02-14T10:26:11;101693.19;;;10.15;100.00
43707;BME280;61348;53.392;-6.248;2023-02-14T10:28:45;101700.38;;;10.25;100.00
43707;BME280;61348;53.392;-6.248;2023-02-14T10:31:24;101704.31;;;10.32;100.00
43707;BME280;61348;53.392;-6.248;2023-02-14T10:44:46;101720.03;;;10.63;100.00
43707;BME280;61348;53.392;-6.248;2023-02-14T10:55:12;101718.47;;;11.05;100.00
43707;BME280;61348;53.392;-6.248;2023-02-14T10:57:57;101709.53;;;11.25;100.00
43707;BME280;61348;53.392;-6.248;2023-02-14T11:00:33;101695.81;;;11.37;99.88
43707;BME280;61348;53.392;-6.248;2023-02-14T11:03:05;101701.19;;;11.33;99.24
43707;BME280;61348;53.392;-6.248;2023-02-14T11:05:44;101704.78;;;11.25;99.21
43707;BME280;61348;53.392;-6.248;2023-02-14T11:08:34;101696.31;;;11.13;99.25
43707;BME280;61348;53.392;-6.248;2023-02-14T11:13:49;101700.06;;;11.00;99.35
43707;BME280;61348;53.392;-6.248;2023-02-14T11:16:34;101689.31;;;10.98;99.39
43707;BME280;61348;53.392;-6.248;2023-02-14T11:21:43;101692.56;;;10.92;99.03
43707;BME280;61348;53.392;-6.248;2023-02-14T11:24:33;101691.06;;;10.86;98.89
43707;BME280;61348;53.392;-6.248;2023-02-14T11:29:47;101704.13;;;10.85;98.93
43707;BME280;61348;53.392;-6.248;2023-02-14T11:32:29;101694.34;;;10.88;98.76
43707;BME280;61348;53.392;-6.248;2023-02-14T11:35:04;101692.38;;;10.88;98.62
43707;BME280;61348;53.392;-6.248;2023-02-14T11:37:41;101689.31;;;10.90;98.40
43707;BME280;61348;53.392;-6.248;2023-02-14T11:42:51;101687.81;;;10.84;97.85
43707;BME280;61348;53.392;-6.248;2023-02-14T11:45:38;101691.38;;;10.76;97.83
43707;BME280;61348;53.392;-6.248;2023-02-14T11:48:19;101693.97;;;10.72;97.64
43707;BME280;61348;53.392;-6.248;2023-02-14T11:51:07;101694.31;;;10.71;97.74
43707;BME280;61348;53.392;-6.248;2023-02-14T11:56:12;101682.59;;;10.74;97.95
43707;BME280;61348;53.392;-6.248;2023-02-14T12:01:19;101680.34;;;10.93;97.91
43707;BME280;61348;53.392;-6.248;2023-02-14T12:03:47;101675.59;;;11.02;97.59
43707;BME280;61348;53.392;-6.248;2023-02-14T12:06:26;101666.97;;;11.12;97.49
43707;BME280;61348;53.392;-6.248;2023-02-14T12:14:22;101666.00;;;11.17;97.11
43707;BME280;61348;53.392;-6.248;2023-02-14T12:23:00;101648.22;;;11.18;96.75
43707;BME280;61348;53.392;-6.248;2023-02-14T12:25:52;101653.75;;;11.18;96.66
43707;BME280;61348;53.392;-6.248;2023-02-14T12:28:27;101648.22;;;11.18;96.66
43707;BME280;61348;53.392;-6.248;2023-02-14T12:30:57;101640.41;;;11.20;96.48
43707;BME280;61348;53.392;-6.248;2023-02-14T12:33:24;101634.88;;;11.20;96.51
43707;BME280;61348;53.392;-6.248;2023-02-14T12:36:02;101627.69;;;11.19;96.38
43707;BME280;61348;53.392;-6.248;2023-02-14T13:01:11;101591.91;;;11.51;95.24
43707;BME280;61348;53.392;-6.248;2023-02-14T13:04:00;101590.56;;;11.57;95.11
43707;BME280;61348;53.392;-6.248;2023-02-14T13:09:44;101585.81;;;11.67;94.57
43707;BME280;61348;53.392;-6.248;2023-02-14T13:17:32;101578.13;;;11.81;93.76
43707;BME280;61348;53.392;-6.248;2023-02-14T13:22:51;101568.63;;;11.82;93.16
43707;BME280;61348;53.392;-6.248;2023-02-14T13:25:27;101579.75;;;11.82;92.93
43707;BME280;61348;53.392;-6.248;2023-02-14T13:28:05;101565.38;;;11.80;92.55
43707;BME280;61348;53.392;-6.248;2023-02-14T13:30:35;101567.69;;;11.78;92.04
43707;BME280;61348;53.392;-6.248;2023-02-14T13:33:13;101563.75;;;11.79;92.21
43707;BME280;61348;53.392;-6.248;2023-02-14T13:35:46;101555.59;;;11.82;92.24
43707;BME280;61348;53.392;-6.248;2023-02-14T13:38:14;101557.34;;;11.87;91.74
43707;BME280;61348;53.392;-6.248;2023-02-14T13:40:42;101556.03;;;11.93;91.58
43707;BME280;61348;53.392;-6.248;2023-02-14T13:43:10;101559.06;;;12.00;91.30
43707;BME280;61348;53.392;-6.248;2023-02-14T13:48:29;101546.63;;;12.06;90.91
43707;BME280;61348;53.392;-6.248;2023-02-14T13:51:02;101553.00;;;12.06;90.28
43707;BME280;61348;53.392;-6.248;2023-02-14T13:53:49;101543.19;;;12.09;90.01
43707;BME280;61348;53.392;-6.248;2023-02-14T13:58:53;101540.84;;;12.19;89.31
43707;BME280;61348;53.392;-6.248;2023-02-14T14:01:44;101539.63;;;12.29;89.11
43707;BME280;61348;53.392;-6.248;2023-02-14T14:22:54;101525.66;;;12.79;82.43
43707;BME280;61348;53.392;-6.248;2023-02-14T14:25:36;101514.66;;;12.82;82.16
43707;BME280;61348;53.392;-6.248;2023-02-14T14:28:19;101519.56;;;12.86;81.76
43707;BME280;61348;53.392;-6.248;2023-02-14T14:30:49;101523.47;;;12.84;81.04
43707;BME280;61348;53.392;-6.248;2023-02-14T14:33:31;101524.28;;;12.85;80.53
43707;BME280;61348;53.392;-6.248;2023-02-14T14:36:07;101516.31;;;12.83;79.96
43707;BME280;61348;53.392;-6.248;2023-02-14T14:38:48;101520.69;;;12.84;79.35
43707;BME280;61348;53.392;-6.248;2023-02-14T14:41:16;101514.66;;;12.82;78.83
43707;BME280;61348;53.392;-6.248;2023-02-14T14:43:43;101508.44;;;12.86;78.59
43707;BME280;61348;53.392;-6.248;2023-02-14T14:46:11;101497.78;;;12.88;78.47
43707;BME280;61348;53.392;-6.248;2023-02-14T14:48:44;101499.75;;;12.87;78.22
43707;BME280;61348;53.392;-6.248;2023-02-14T14:51:33;101492.69;;;12.90;77.55
43707;BME280;61348;53.392;-6.248;2023-02-14T14:54:15;101500.69;;;12.91;77.13
43707;BME280;61348;53.392;-6.248;2023-02-14T14:56:58;101502.66;;;12.91;76.78
43707;BME280;61348;53.392;-6.248;2023-02-14T14:59:32;101511.00;;;12.91;76.41
43707;BME280;61348;53.392;-6.248;2023-02-14T15:02:40;101501.03;;;12.90;75.94
43707;BME280;61348;53.392;-6.248;2023-02-14T15:05:22;101503.81;;;12.90;75.71
43707;BME280;61348;53.392;-6.248;2023-02-14T15:07:51;101501.38;;;12.88;75.11
43707;BME280;61348;53.392;-6.248;2023-02-14T15:10:28;101498.59;;;12.88;74.74
43707;BME280;61348;53.392;-6.248;2023-02-14T15:12:57;101500.91;;;12.86;74.35
43707;BME280;61348;53.392;-6.248;2023-02-14T15:15:47;101501.72;;;12.87;74.33
43707;BME280;61348;53.392;-6.248;2023-02-14T15:18:17;101505.19;;;12.83;73.95
43707;BME280;61348;53.392;-6.248;2023-02-14T15:20:50;101502.28;;;12.80;73.80
43707;BME280;61348;53.392;-6.248;2023-02-14T15:23:22;101510.16;;;12.78;73.49
43707;BME280;61348;53.392;-6.248;2023-02-14T15:25:50;101498.91;;;12.74;73.48
43707;BME280;61348;53.392;-6.248;2023-02-14T15:28:30;101502.81;;;12.73;73.40
43707;BME280;61348;53.392;-6.248;2023-02-14T15:30:59;101503.16;;;12.72;73.32
43707;BME280;61348;53.392;-6.248;2023-02-14T15:33:29;101509.53;;;12.72;73.36
43707;BME280;61348;53.392;-6.248;2023-02-14T15:36:01;101507.09;;;12.71;73.16
43707;BME280;61348;53.392;-6.248;2023-02-14T15:38:29;101507.09;;;12.71;73.25
43707;BME280;61348;53.392;-6.248;2023-02-14T15:40:58;101490.78;;;12.69;73.13
43707;BME280;61348;53.392;-6.248;2023-02-14T15:43:31;101497.47;;;12.68;73.01
43707;BME280;61348;53.392;-6.248;2023-02-14T15:46:16;101484.75;;;12.67;73.04
43707;BME280;61348;53.392;-6.248;2023-02-14T15:48:44;101487.06;;;12.65;73.14
43707;BME280;61348;53.392;-6.248;2023-02-14T15:51:21;101485.56;;;12.68;73.06
43707;BME280;61348;53.392;-6.248;2023-02-14T15:53:54;101490.41;;;12.71;73.15
43707;BME280;61348;53.392;-6.248;2023-02-14T15:56:43;101476.19;;;12.72;73.05
43707;BME280;61348;53.392;-6.248;2023-02-14T15:59:21;101489.75;;;12.74;73.12
43707;BME280;61348;53.392;-6.248;2023-02-14T16:02:03;101477.13;;;12.76;72.91
43707;BME280;61348;53.392;-6.248;2023-02-14T16:04:40;101476.91;;;12.81;72.66
43707;BME280;61348;53.392;-6.248;2023-02-14T16:07:27;101481.09;;;12.88;72.49